createdAt,value
2019-03-27T00:00:02.380Z,74.3
2019-03-27T00:01:14.369Z,74.3
2019-03-27T00:02:26.596Z,74.6
2019-03-27T00:03:38.783Z,74.9
2019-03-27T00:04:51.128Z,74.9
2019-03-27T00:08:27.609Z,74.9
2019-03-27T00:09:39.745Z,75
2019-03-27T00:12:04.138Z,74.8
2019-03-27T00:13:16.468Z,74.5
2019-03-27T00:14:28.667Z,75
2019-03-27T00:15:40.810Z,74.7
2019-03-27T00:16:53.007Z,75
2019-03-27T00:19:17.340Z,75.1
2019-03-27T00:20:29.598Z,75
2019-03-27T00:21:41.691Z,75.4
2019-03-27T00:22:53.966Z,75.3
2019-03-27T00:24:06.081Z,75.4
2019-03-27T00:25:18.353Z,75.4
2019-03-27T00:26:30.495Z,75.6
2019-03-27T00:27:42.710Z,75.1
2019-03-27T00:28:54.877Z,74.6
2019-03-27T00:31:19.289Z,74
2019-03-27T00:32:31.552Z,74
2019-03-27T00:33:43.648Z,74.3
2019-03-27T00:34:55.835Z,74.2
2019-03-27T00:36:08.097Z,74.8
2019-03-27T00:37:20.252Z,75
2019-03-27T00:38:32.456Z,74.2
2019-03-27T00:39:44.642Z,74
2019-03-27T00:40:56.929Z,74.3
2019-03-27T00:45:45.698Z,74.3
2019-03-27T00:48:09.983Z,74.6
2019-03-27T00:49:22.181Z,74.5
2019-03-27T00:51:46.612Z,75
2019-03-27T00:52:58.863Z,73.6
2019-03-27T00:55:23.167Z,74.5
2019-03-27T00:56:35.547Z,74.7
2019-03-27T00:57:47.587Z,74.3
2019-03-27T00:58:59.754Z,74.2
2019-03-27T01:00:12.050Z,73.2
2019-03-27T01:01:24.214Z,73.6
2019-03-27T01:02:36.526Z,73.8
2019-03-27T01:03:48.547Z,74.5
2019-03-27T01:05:00.706Z,74
2019-03-27T01:07:25.102Z,74.5
2019-03-27T01:08:37.401Z,74.8
2019-03-27T01:09:49.567Z,74.9
2019-03-27T01:11:01.767Z,75.1
2019-03-27T01:12:13.915Z,74.9
2019-03-27T01:13:26.092Z,75
2019-03-27T01:14:38.281Z,74.8
2019-03-27T01:15:50.551Z,74.2
2019-03-27T01:17:02.665Z,74.8
2019-03-27T01:19:27.062Z,74.8
2019-03-27T01:20:43.782Z,75.1
2019-03-27T01:21:55.355Z,75
2019-03-27T01:23:03.742Z,74.8
2019-03-27T01:24:15.839Z,74.3
2019-03-27T01:25:28.070Z,74.9
2019-03-27T01:26:40.254Z,74.6
2019-03-27T01:27:52.538Z,75.1
2019-03-27T01:29:04.628Z,74.9
2019-03-27T01:31:29.027Z,75.3
2019-03-27T01:32:41.444Z,75.5
2019-03-27T01:35:05.661Z,75.1
2019-03-27T01:37:29.996Z,74
2019-03-27T01:39:54.454Z,73.4
2019-03-27T01:41:06.580Z,74.2
2019-03-27T01:43:31.037Z,75.1
2019-03-27T01:44:43.305Z,75.2
2019-03-27T01:45:55.447Z,75.1
2019-03-27T01:47:07.654Z,75.1
2019-03-27T01:48:19.782Z,74.8
2019-03-27T01:49:31.941Z,75.4
2019-03-27T01:50:44.260Z,75.5
2019-03-27T01:51:56.330Z,74.8
2019-03-27T01:53:08.533Z,75
2019-03-27T01:55:32.984Z,75.1
2019-03-27T01:56:45.116Z,75.5
2019-03-27T01:57:57.508Z,75.2
2019-03-27T01:59:09.577Z,75.5
2019-03-27T02:00:21.809Z,75
2019-03-27T02:01:34.069Z,75.5
2019-03-27T02:02:46.196Z,75.4
2019-03-27T02:03:58.310Z,75
2019-03-27T02:05:10.571Z,75.5
2019-03-27T02:07:34.874Z,74.8
2019-03-27T02:08:47.090Z,75.4
2019-03-27T02:09:59.274Z,75.5
2019-03-27T02:11:11.569Z,75.1
2019-03-27T02:12:23.773Z,75.4
2019-03-27T02:13:35.929Z,75.9
2019-03-27T02:16:00.252Z,75.6
2019-03-27T02:19:36.852Z,75.8
2019-03-27T02:22:01.345Z,74.9
2019-03-27T02:23:13.499Z,75
2019-03-27T02:24:25.615Z,75
2019-03-27T02:25:37.814Z,75.6
2019-03-27T02:26:50.104Z,75.2
2019-03-27T02:28:02.363Z,75.6
2019-03-27T02:29:14.414Z,75
2019-03-27T02:31:38.790Z,75.1
2019-03-27T02:32:51.055Z,76.5
2019-03-27T02:34:03.313Z,76
2019-03-27T02:35:15.499Z,76
2019-03-27T02:36:27.587Z,75.5
2019-03-27T02:37:39.858Z,76.9
2019-03-27T02:38:51.959Z,76.2
2019-03-27T02:40:04.243Z,76.2
2019-03-27T02:41:16.507Z,75.6
2019-03-27T02:42:28.585Z,76
2019-03-27T02:43:40.815Z,75.6
2019-03-27T02:44:52.946Z,76
2019-03-27T02:46:05.151Z,76
2019-03-27T02:47:17.514Z,76.2
2019-03-27T02:48:29.532Z,76.2
2019-03-27T02:49:41.740Z,75.9
2019-03-27T02:50:54.000Z,75.9
2019-03-27T02:52:06.226Z,75.9
2019-03-27T02:53:18.311Z,76.3
2019-03-27T02:55:42.776Z,76
2019-03-27T02:58:07.116Z,76
2019-03-27T02:59:19.405Z,75.5
2019-03-27T03:00:31.551Z,75.8
2019-03-27T03:01:43.709Z,75.8
2019-03-27T03:02:55.935Z,75.8
2019-03-27T03:04:08.083Z,76
2019-03-27T03:05:20.284Z,76.5
2019-03-27T03:07:44.678Z,76.5
2019-03-27T03:08:57.013Z,75.8
2019-03-27T03:10:09.145Z,76
2019-03-27T03:11:21.309Z,76.2
2019-03-27T03:12:33.441Z,76.7
2019-03-27T03:13:45.638Z,77.1
2019-03-27T03:14:57.930Z,76.5
2019-03-27T03:16:10.091Z,76.5
2019-03-27T03:17:22.267Z,76.1
2019-03-27T03:19:46.624Z,76.9
2019-03-27T03:20:59.073Z,76.3
2019-03-27T03:22:11.211Z,75.8
2019-03-27T03:23:23.376Z,76.3
2019-03-27T03:24:35.431Z,76.2
2019-03-27T03:25:47.597Z,76.6
2019-03-27T03:26:59.889Z,76.9
2019-03-27T03:28:11.997Z,76.3
2019-03-27T03:29:24.180Z,77
2019-03-27T03:30:36.418Z,76.8
2019-03-27T03:31:48.589Z,76.9
2019-03-27T03:33:00.879Z,77.7
2019-03-27T03:34:12.965Z,77.4
2019-03-27T03:35:25.272Z,77.3
2019-03-27T03:37:49.553Z,77.1
2019-03-27T03:39:01.810Z,77.2
2019-03-27T03:40:14.019Z,78.3
2019-03-27T03:41:26.144Z,78
2019-03-27T03:43:50.616Z,77.6
2019-03-27T03:45:02.961Z,78
2019-03-27T03:46:14.962Z,78.1
2019-03-27T03:47:27.285Z,78.6
2019-03-27T03:48:39.351Z,78.2
2019-03-27T03:49:51.598Z,78.2
2019-03-27T03:51:03.713Z,78.1
2019-03-27T03:52:15.905Z,78
2019-03-27T03:55:52.557Z,78.4
2019-03-27T03:57:04.737Z,78.6
2019-03-27T03:58:16.894Z,78.8
2019-03-27T03:59:29.167Z,78.8
2019-03-27T04:00:42.498Z,78.8
2019-03-27T04:01:54.857Z,79.2
2019-03-27T04:03:05.735Z,79.1
2019-03-27T04:04:17.856Z,78.6
2019-03-27T04:05:30.063Z,78.5
2019-03-27T04:07:54.445Z,78.8
2019-03-27T04:09:06.769Z,79
2019-03-27T04:10:18.860Z,78.5
2019-03-27T04:11:31.265Z,78.8
2019-03-27T04:12:43.218Z,79.3
2019-03-27T04:13:55.502Z,79.3
2019-03-27T04:16:19.903Z,79.2
2019-03-27T04:17:32.009Z,79.1
2019-03-27T04:22:20.887Z,79.5
2019-03-27T04:23:33.086Z,79.4
2019-03-27T04:24:45.290Z,79.5
2019-03-27T04:25:57.384Z,79.2
2019-03-27T04:27:09.592Z,79.5
2019-03-27T04:28:21.770Z,79.7
2019-03-27T04:29:33.961Z,79.9
2019-03-27T04:31:58.374Z,79.7
2019-03-27T04:34:22.942Z,80.1
2019-03-27T04:35:35.164Z,80
2019-03-27T04:36:47.146Z,79.9
2019-03-27T04:37:59.339Z,80.1
2019-03-27T04:39:11.596Z,80.1
2019-03-27T04:40:23.716Z,80.1
2019-03-27T04:41:36.976Z,80.5
2019-03-27T04:44:00.322Z,80.6
2019-03-27T04:45:12.710Z,80.6
2019-03-27T04:46:24.728Z,80.4
2019-03-27T04:47:36.970Z,80.5
2019-03-27T04:48:49.130Z,80.7
2019-03-27T04:50:01.462Z,80.6
2019-03-27T04:51:13.485Z,80.8
2019-03-27T04:52:25.676Z,82.1
2019-03-27T04:53:39.180Z,81.4
2019-03-27T04:58:26.642Z,81.3
2019-03-27T04:59:38.949Z,81.3
2019-03-27T05:02:03.240Z,81.3
2019-03-27T05:03:15.649Z,81.5
2019-03-27T05:04:27.841Z,81.4
2019-03-27T05:05:39.900Z,81.5
2019-03-27T05:08:04.221Z,81.8
2019-03-27T05:10:28.820Z,82
2019-03-27T05:11:40.931Z,82.2
2019-03-27T05:12:53.045Z,82.2
2019-03-27T05:14:05.219Z,82
2019-03-27T05:15:17.592Z,82.3
2019-03-27T05:16:29.649Z,82.2
2019-03-27T05:17:41.775Z,82.3
2019-03-27T05:22:30.629Z,82.2
2019-03-27T05:23:42.824Z,82.3
2019-03-27T05:26:07.213Z,82.1
2019-03-27T05:27:19.445Z,81.9
2019-03-27T05:28:31.616Z,82.1
2019-03-27T05:29:43.733Z,82.1
2019-03-27T05:32:08.125Z,82.3
2019-03-27T05:33:20.394Z,82.6
2019-03-27T05:34:32.604Z,82.7
2019-03-27T05:35:44.780Z,82.4
2019-03-27T05:36:56.959Z,82.3
2019-03-27T05:38:09.124Z,82.6
2019-03-27T05:39:21.380Z,82.6
2019-03-27T05:40:34.317Z,82.6
2019-03-27T05:41:45.747Z,82.6
2019-03-27T05:44:10.139Z,82.6
2019-03-27T05:46:34.576Z,82.5
2019-03-27T05:47:46.843Z,83
2019-03-27T05:48:58.902Z,82.6
2019-03-27T05:50:14.010Z,82.6
2019-03-27T05:51:23.327Z,82.5
2019-03-27T05:52:35.440Z,82.8
2019-03-27T05:53:47.631Z,82.7
2019-03-27T05:58:36.429Z,83.2
2019-03-27T05:59:48.700Z,83.2
2019-03-27T06:01:00.828Z,83.2
2019-03-27T06:02:13.104Z,83
2019-03-27T06:03:25.210Z,82.8
2019-03-27T06:04:37.404Z,82.9
2019-03-27T06:05:49.602Z,83
2019-03-27T06:08:14.055Z,83
2019-03-27T06:10:38.457Z,82.9
2019-03-27T06:11:50.579Z,82.8
2019-03-27T06:13:02.870Z,82.8
2019-03-27T06:14:15.037Z,82.9
2019-03-27T06:15:27.156Z,83.2
2019-03-27T06:16:39.350Z,83.2
2019-03-27T06:17:51.566Z,82.9
2019-03-27T06:21:28.281Z,83.2
2019-03-27T06:22:40.393Z,83.2
2019-03-27T06:23:52.696Z,83.6
2019-03-27T06:25:04.725Z,83
2019-03-27T06:26:16.921Z,83.7
2019-03-27T06:27:29.141Z,84.1
2019-03-27T06:28:41.337Z,83.7
2019-03-27T06:29:53.712Z,83.3
2019-03-27T06:32:17.965Z,83
2019-03-27T06:33:30.162Z,83.1
2019-03-27T06:34:42.842Z,83.1
2019-03-27T06:35:54.489Z,83
2019-03-27T06:37:06.791Z,83.4
2019-03-27T06:38:18.887Z,83.4
2019-03-27T06:39:31.241Z,83.3
2019-03-27T06:40:43.351Z,83.3
2019-03-27T06:41:55.540Z,83.2
2019-03-27T06:44:19.953Z,83.2
2019-03-27T06:45:32.039Z,83.2
2019-03-27T06:46:44.236Z,83.1
2019-03-27T06:47:56.431Z,83.2
2019-03-27T06:49:08.622Z,83.2
2019-03-27T06:50:20.816Z,83.2
2019-03-27T06:51:33.067Z,83.3
2019-03-27T06:52:45.201Z,83
2019-03-27T06:53:57.392Z,83.4
2019-03-27T06:56:21.850Z,83.1
2019-03-27T06:57:33.989Z,83
2019-03-27T06:58:46.249Z,83.6
2019-03-27T06:59:58.372Z,83.3
2019-03-27T07:01:10.552Z,83.5
2019-03-27T07:02:22.838Z,83.3
2019-03-27T07:03:34.949Z,83.1
2019-03-27T07:04:47.137Z,83.3
2019-03-27T07:05:59.374Z,84
2019-03-27T07:08:23.769Z,83.5
2019-03-27T07:09:35.928Z,82.9
2019-03-27T07:10:48.206Z,83.3
2019-03-27T07:12:00.403Z,83.3
2019-03-27T07:14:24.686Z,83.9
2019-03-27T07:15:37.884Z,83.1
2019-03-27T07:16:49.139Z,83
2019-03-27T07:18:01.497Z,83.1
2019-03-27T07:20:25.650Z,83.1
2019-03-27T07:21:37.881Z,83.1
2019-03-27T07:22:50.090Z,83.2
2019-03-27T07:24:02.282Z,83.2
2019-03-27T07:25:14.432Z,83.2
2019-03-27T07:26:26.622Z,83.2
2019-03-27T07:27:38.919Z,83.7
2019-03-27T07:28:51.012Z,83.3
2019-03-27T07:30:03.303Z,83.3
2019-03-27T07:32:27.691Z,83.3
2019-03-27T07:33:40.027Z,83.2
2019-03-27T07:34:51.998Z,83.2
2019-03-27T07:36:04.190Z,82.9
2019-03-27T07:37:16.439Z,82.9
2019-03-27T07:38:28.632Z,83.1
2019-03-27T07:39:40.865Z,83.3
2019-03-27T07:40:52.967Z,83.1
2019-03-27T07:42:05.197Z,83
2019-03-27T07:44:29.640Z,83.2
2019-03-27T07:45:41.821Z,83.1
2019-03-27T07:46:53.922Z,83.1
2019-03-27T07:48:06.210Z,83.3
2019-03-27T07:49:18.391Z,82.6
2019-03-27T07:50:30.504Z,82.3
2019-03-27T07:51:42.709Z,82.3
2019-03-27T07:52:54.947Z,82.6
2019-03-27T07:54:07.189Z,82.4
2019-03-27T07:56:31.548Z,82.4
2019-03-27T08:00:08.058Z,82.8
2019-03-27T08:01:20.251Z,82.6
2019-03-27T08:02:32.586Z,82.7
2019-03-27T08:04:56.923Z,82.3
2019-03-27T08:06:09.017Z,82.1
2019-03-27T08:08:33.755Z,82.3
2019-03-27T08:09:45.703Z,81.9
2019-03-27T08:10:57.795Z,82
2019-03-27T08:12:10.079Z,82
2019-03-27T08:13:22.241Z,81.6
2019-03-27T08:14:34.491Z,81.6
2019-03-27T08:15:46.662Z,81.3
2019-03-27T08:16:58.904Z,81.3
2019-03-27T08:18:10.987Z,81.4
2019-03-27T08:20:35.342Z,81.3
2019-03-27T08:21:47.790Z,81
2019-03-27T08:22:59.860Z,81.2
2019-03-27T08:24:11.973Z,81.1
2019-03-27T08:25:24.130Z,80.7
2019-03-27T08:26:36.317Z,80.5
2019-03-27T08:27:48.515Z,80.2
2019-03-27T08:29:00.688Z,80.9
2019-03-27T08:30:12.950Z,81
2019-03-27T08:32:37.341Z,80.7
2019-03-27T08:33:49.480Z,80.8
2019-03-27T08:35:01.667Z,80.8
2019-03-27T08:36:13.868Z,80.5
2019-03-27T08:37:26.158Z,81.1
2019-03-27T08:38:38.327Z,80.9
2019-03-27T08:39:50.521Z,80.2
2019-03-27T08:41:02.700Z,80.7
2019-03-27T08:42:14.838Z,80.6
2019-03-27T08:43:27.018Z,80.7
2019-03-27T08:44:39.295Z,80.5
2019-03-27T08:45:51.506Z,80
2019-03-27T08:47:03.686Z,79.8
2019-03-27T08:48:15.998Z,79.6
2019-03-27T08:49:28.092Z,79.4
2019-03-27T08:50:40.262Z,79.9
2019-03-27T08:51:52.405Z,79.2
2019-03-27T08:53:04.796Z,79
2019-03-27T08:55:29.057Z,79
2019-03-27T08:56:41.148Z,78.7
2019-03-27T08:57:53.351Z,78
2019-03-27T08:59:05.580Z,76.6
2019-03-27T09:00:17.867Z,76.2
2019-03-27T09:01:30.079Z,75
2019-03-27T09:02:42.124Z,74.5
2019-03-27T09:03:54.323Z,72.6
2019-03-27T09:05:06.523Z,71.4
2019-03-27T09:06:18.731Z,71.3
2019-03-27T09:08:43.160Z,70
2019-03-27T09:09:55.309Z,68.9
2019-03-27T09:11:07.476Z,68.2
2019-03-27T09:12:19.675Z,68.1
2019-03-27T09:13:31.878Z,67.7
2019-03-27T09:14:44.529Z,68.4
2019-03-27T09:17:08.518Z,68.9
2019-03-27T09:18:21.011Z,68
2019-03-27T09:20:45.204Z,67.5
2019-03-27T09:21:57.300Z,67
2019-03-27T09:23:09.502Z,66.7
2019-03-27T09:25:33.839Z,65.4
2019-03-27T09:26:46.079Z,64.1
2019-03-27T09:27:58.188Z,65.1
2019-03-27T09:29:13.872Z,67.5
2019-03-27T09:30:22.795Z,65.4
2019-03-27T09:32:46.972Z,66.2
2019-03-27T09:33:59.318Z,66.3
2019-03-27T09:35:11.422Z,63
2019-03-27T09:36:23.607Z,63.3
2019-03-27T09:37:35.734Z,62.6
2019-03-27T09:38:47.950Z,64
2019-03-27T09:40:00.237Z,61.5
2019-03-27T09:41:12.403Z,58.4
2019-03-27T09:42:24.499Z,58.9
2019-03-27T09:44:48.951Z,59.2
2019-03-27T09:46:01.287Z,57.5
2019-03-27T09:47:13.372Z,58.7
2019-03-27T09:48:25.503Z,58.1
2019-03-27T09:50:49.883Z,59.6
2019-03-27T09:52:02.101Z,56.3
2019-03-27T09:53:14.385Z,58.7
2019-03-27T09:56:50.851Z,55.5
2019-03-27T09:58:03.109Z,55.5
2019-03-27T10:00:27.583Z,51.6
2019-03-27T10:02:51.878Z,49.1
2019-03-27T10:05:16.288Z,49.9
2019-03-27T10:06:28.379Z,50.3
2019-03-27T10:08:52.776Z,51
2019-03-27T10:10:05.058Z,51.9
2019-03-27T10:11:17.232Z,50.5
2019-03-27T10:12:29.346Z,51.5
2019-03-27T10:13:41.606Z,51.4
2019-03-27T10:14:53.798Z,50.8
2019-03-27T10:16:05.936Z,48.8
2019-03-27T10:17:18.213Z,50
2019-03-27T10:18:30.386Z,52.1
2019-03-27T10:20:54.708Z,50.5
2019-03-27T10:22:06.954Z,50.5
2019-03-27T10:23:21.443Z,50.1
2019-03-27T10:24:34.453Z,51.8
2019-03-27T10:25:43.471Z,54
2019-03-27T10:26:55.675Z,54
2019-03-27T10:29:20.072Z,55.9
2019-03-27T10:30:32.274Z,56.3
2019-03-27T10:32:56.658Z,55.8
2019-03-27T10:34:08.969Z,55
2019-03-27T10:35:21.117Z,54.4
2019-03-27T10:36:33.319Z,57.4
2019-03-27T10:37:45.417Z,55.5
2019-03-27T10:38:57.631Z,58.8
2019-03-27T10:41:21.994Z,58.2
2019-03-27T10:42:34.245Z,57.1
2019-03-27T10:44:58.830Z,58.4
2019-03-27T10:46:10.933Z,57.4
2019-03-27T10:47:22.953Z,56.1
2019-03-27T10:48:35.160Z,57.8
2019-03-27T10:49:47.381Z,58.8
2019-03-27T10:50:59.535Z,57.8
2019-03-27T10:52:11.744Z,59.7
2019-03-27T10:53:23.917Z,58
2019-03-27T10:54:36.170Z,58.3
2019-03-27T10:57:00.518Z,60.6
2019-03-27T10:58:12.716Z,59.6
2019-03-27T10:59:25.045Z,58.7
2019-03-27T11:00:37.122Z,57.2
2019-03-27T11:01:49.322Z,59.6
2019-03-27T11:03:01.479Z,60.5
2019-03-27T11:04:13.666Z,59.7
2019-03-27T11:05:25.960Z,58.9
2019-03-27T11:06:38.093Z,56.3
2019-03-27T11:09:02.542Z,55.7
2019-03-27T11:10:14.770Z,55
2019-03-27T11:11:26.843Z,55.5
2019-03-27T11:12:39.035Z,56.1
2019-03-27T11:13:51.310Z,58
2019-03-27T11:15:03.439Z,55.2
2019-03-27T11:16:15.602Z,58.3
2019-03-27T11:17:27.784Z,57.2
2019-03-27T11:18:39.979Z,56.1
2019-03-27T11:21:04.737Z,58.2
2019-03-27T11:22:16.704Z,58.8
2019-03-27T11:23:28.865Z,58.5
2019-03-27T11:24:41.082Z,58.7
2019-03-27T11:25:53.296Z,58.9
2019-03-27T11:27:05.344Z,58
2019-03-27T11:28:17.697Z,57
2019-03-27T11:29:29.725Z,57.8
2019-03-27T11:33:06.379Z,56
2019-03-27T11:34:18.581Z,54.8
2019-03-27T11:35:30.693Z,53.9
2019-03-27T11:36:42.930Z,53.2
2019-03-27T11:37:55.086Z,54.6
2019-03-27T11:39:07.346Z,53.2
2019-03-27T11:40:19.466Z,54.7
2019-03-27T11:41:31.727Z,53.6
2019-03-27T11:45:08.268Z,53.4
2019-03-27T11:46:20.442Z,51.8
2019-03-27T11:47:32.679Z,50.6
2019-03-27T11:48:44.821Z,53.9
2019-03-27T11:49:57.018Z,52.9
2019-03-27T11:51:09.208Z,53.8
2019-03-27T11:52:21.398Z,52.5
2019-03-27T11:53:33.617Z,54.5
2019-03-27T11:54:45.902Z,54.1
2019-03-27T11:57:10.211Z,55.3
2019-03-27T11:58:22.490Z,54.5
2019-03-27T11:59:34.574Z,55
2019-03-27T12:00:46.761Z,54
2019-03-27T12:01:59.011Z,52.6
2019-03-27T12:03:11.174Z,52.3
2019-03-27T12:04:23.408Z,53.3
2019-03-27T12:05:35.535Z,52
2019-03-27T12:06:47.999Z,53.9
2019-03-27T12:09:12.125Z,53.4
2019-03-27T12:10:24.400Z,55.4
2019-03-27T12:11:36.582Z,54.9
2019-03-27T12:12:48.787Z,55.2
2019-03-27T12:15:13.096Z,55.6
2019-03-27T12:17:37.601Z,54.1
2019-03-27T12:18:49.726Z,53.1
2019-03-27T12:21:14.041Z,52.9
2019-03-27T12:22:26.315Z,54.1
2019-03-27T12:23:38.556Z,55.7
2019-03-27T12:24:50.740Z,54.7
2019-03-27T12:26:03.523Z,55.3
2019-03-27T12:27:15.091Z,54.5
2019-03-27T12:28:27.391Z,56.2
2019-03-27T12:29:39.436Z,57.5
2019-03-27T12:30:51.675Z,55.8
2019-03-27T12:33:15.988Z,56
2019-03-27T12:34:28.306Z,57.4
2019-03-27T12:35:40.373Z,56
2019-03-27T12:36:53.517Z,58.8
2019-03-27T12:38:05.833Z,57.8
2019-03-27T12:39:16.998Z,58.6
2019-03-27T12:40:29.148Z,58.9
2019-03-27T12:41:41.335Z,58.7
2019-03-27T12:42:54.760Z,58.2
2019-03-27T12:44:05.716Z,56.5
2019-03-27T12:45:17.923Z,55.4
2019-03-27T12:46:30.114Z,54.9
2019-03-27T12:47:42.309Z,57
2019-03-27T12:48:54.547Z,55.2
2019-03-27T12:50:06.700Z,56.5
2019-03-27T12:51:18.912Z,52.5
2019-03-27T12:52:31.093Z,56
2019-03-27T12:53:43.295Z,55.3
2019-03-27T12:54:55.541Z,56.2
2019-03-27T12:57:19.933Z,54.1
2019-03-27T12:58:32.231Z,55.3
2019-03-27T13:00:56.521Z,54.8
2019-03-27T13:02:08.771Z,54.8
2019-03-27T13:03:21.071Z,55
2019-03-27T13:04:33.138Z,54.8
2019-03-27T13:05:45.231Z,53.6
2019-03-27T13:06:57.529Z,52.9
2019-03-27T13:09:21.876Z,52
2019-03-27T13:10:33.972Z,53.4
2019-03-27T13:11:46.228Z,55.1
2019-03-27T13:12:58.546Z,53.5
2019-03-27T13:14:10.645Z,52.8
2019-03-27T13:15:22.751Z,53.8
2019-03-27T13:16:34.947Z,53.9
2019-03-27T13:17:47.145Z,53.4
2019-03-27T13:18:59.340Z,52.1
2019-03-27T13:22:36.031Z,53.1
2019-03-27T13:23:48.105Z,52.9
2019-03-27T13:25:00.390Z,52.2
2019-03-27T13:26:12.498Z,53.4
2019-03-27T13:27:24.701Z,53.3
2019-03-27T13:28:37.014Z,55.1
2019-03-27T13:29:49.068Z,51.2
2019-03-27T13:31:01.489Z,54.9
2019-03-27T13:33:25.676Z,51.5
2019-03-27T13:34:37.951Z,51.4
2019-03-27T13:35:50.042Z,54.8
2019-03-27T13:37:02.426Z,54.6
2019-03-27T13:38:14.420Z,55.2
2019-03-27T13:39:26.610Z,53.4
2019-03-27T13:40:38.925Z,53.2
2019-03-27T13:41:51.137Z,57
2019-03-27T13:45:27.579Z,53.3
2019-03-27T13:46:39.858Z,54.2
2019-03-27T13:47:51.967Z,56.1
2019-03-27T13:49:04.170Z,54.4
2019-03-27T13:50:16.442Z,54.6
2019-03-27T13:51:28.689Z,55.6
2019-03-27T13:52:40.805Z,54.6
2019-03-27T13:53:52.957Z,56
2019-03-27T13:55:05.123Z,54.7
2019-03-27T13:57:29.618Z,54.6
2019-03-27T13:58:41.932Z,55.1
2019-03-27T14:01:06.103Z,56
2019-03-27T14:02:18.307Z,55.9
2019-03-27T14:03:30.489Z,57.1
2019-03-27T14:04:42.701Z,57.3
2019-03-27T14:05:54.903Z,56.9
2019-03-27T14:07:07.421Z,57.3
2019-03-27T14:09:31.656Z,57.7
2019-03-27T14:10:43.706Z,56.1
2019-03-27T14:12:01.335Z,57.7
2019-03-27T14:13:08.111Z,57.6
2019-03-27T14:14:20.223Z,58.3
2019-03-27T14:15:32.467Z,57.4
2019-03-27T14:16:44.648Z,56.8
2019-03-27T14:17:56.927Z,58.2
2019-03-27T14:19:09.136Z,57.4
2019-03-27T14:21:33.422Z,56.4
2019-03-27T14:22:45.631Z,55.5
2019-03-27T14:23:57.774Z,55.2
2019-03-27T14:25:10.025Z,56.3
2019-03-27T14:26:22.284Z,56.5
2019-03-27T14:27:34.369Z,56.3
2019-03-27T14:28:46.553Z,55.2
2019-03-27T14:29:58.810Z,58.3
2019-03-27T14:31:10.931Z,56.9
2019-03-27T14:33:35.412Z,56.8
2019-03-27T14:34:47.847Z,55.8
2019-03-27T14:35:59.711Z,56.8
2019-03-27T14:37:11.958Z,55.1
2019-03-27T14:38:24.133Z,57.1
2019-03-27T14:39:36.479Z,56.4
2019-03-27T14:40:48.491Z,57.9
2019-03-27T14:42:00.747Z,58.2
2019-03-27T14:43:12.872Z,57
2019-03-27T14:45:37.359Z,58.1
2019-03-27T14:46:49.453Z,57
2019-03-27T14:48:01.647Z,56.4
2019-03-27T14:49:14.857Z,57
2019-03-27T14:50:26.787Z,56.2
2019-03-27T14:51:38.321Z,56.9
2019-03-27T14:52:50.419Z,57.6
2019-03-27T14:54:02.623Z,56.6
2019-03-27T14:55:14.937Z,57
2019-03-27T14:57:39.200Z,57.4
2019-03-27T14:58:51.442Z,57.3
2019-03-27T15:00:03.592Z,56
2019-03-27T15:01:15.868Z,56.6
2019-03-27T15:03:40.367Z,58.5
2019-03-27T15:04:52.370Z,57.3
2019-03-27T15:06:04.603Z,56
2019-03-27T15:07:16.764Z,56.3
2019-03-27T15:10:53.330Z,57
2019-03-27T15:12:05.619Z,56
2019-03-27T15:13:17.734Z,55.7
2019-03-27T15:14:29.921Z,56.3
2019-03-27T15:15:44.370Z,56.6
2019-03-27T15:16:56.352Z,56
2019-03-27T15:18:08.163Z,55.4
2019-03-27T15:19:18.698Z,55.5
2019-03-27T15:21:45.303Z,53.8
2019-03-27T15:22:55.274Z,57.7
2019-03-27T15:24:07.476Z,55.3
2019-03-27T15:25:21.284Z,56.5
2019-03-27T15:26:33.486Z,57.4
2019-03-27T15:27:44.097Z,55.4
2019-03-27T15:28:56.237Z,56.1
2019-03-27T15:30:10.547Z,55.4
2019-03-27T15:31:22.568Z,56
2019-03-27T15:33:45.057Z,59.1
2019-03-27T15:34:59.760Z,58.6
2019-03-27T15:36:14.276Z,57.7
2019-03-27T15:37:21.693Z,56.6
2019-03-27T15:38:33.798Z,58
2019-03-27T15:39:46.098Z,57.5
2019-03-27T15:40:58.177Z,56.8
2019-03-27T15:42:10.371Z,57
2019-03-27T15:43:22.568Z,58.4
2019-03-27T15:45:46.948Z,56.6
2019-03-27T15:46:59.162Z,55.9
2019-03-27T15:48:11.430Z,57.2
2019-03-27T15:49:23.541Z,57.6
2019-03-27T15:50:35.814Z,58
2019-03-27T15:51:48.018Z,57.8
2019-03-27T15:53:00.190Z,56.5
2019-03-27T15:54:12.332Z,55
2019-03-27T15:57:48.902Z,57.5
2019-03-27T15:59:01.087Z,58
2019-03-27T16:00:13.270Z,56.5
2019-03-27T16:01:25.467Z,57.5
2019-03-27T16:02:37.666Z,55.9
2019-03-27T16:03:49.872Z,56
2019-03-27T16:05:02.122Z,55.2
2019-03-27T16:06:14.368Z,56.1
2019-03-27T16:07:26.465Z,56.1
2019-03-27T16:09:50.963Z,55.3
2019-03-27T16:11:03.031Z,56
2019-03-27T16:12:15.215Z,55.1
2019-03-27T16:13:28.954Z,56.9
2019-03-27T16:14:39.751Z,57.3
2019-03-27T16:15:51.791Z,54.3
2019-03-27T16:17:07.991Z,54.5
2019-03-27T16:18:16.263Z,57.9
2019-03-27T16:19:28.376Z,56.6
2019-03-27T16:21:52.815Z,56
2019-03-27T16:23:04.985Z,55.8
2019-03-27T16:24:17.163Z,57.2
2019-03-27T16:25:29.360Z,55.7
2019-03-27T16:26:41.639Z,55.7
2019-03-27T16:27:53.779Z,57.6
2019-03-27T16:29:06.006Z,57.2
2019-03-27T16:30:18.248Z,56.1
2019-03-27T16:31:30.335Z,54.7
2019-03-27T16:33:54.716Z,55
2019-03-27T16:35:07.026Z,57.6
2019-03-27T16:36:19.120Z,56.2
2019-03-27T16:37:31.375Z,58.4
2019-03-27T16:38:43.509Z,56.6
2019-03-27T16:39:55.717Z,59.2
2019-03-27T16:41:07.915Z,57.1
2019-03-27T16:42:20.201Z,56.3
2019-03-27T16:43:32.370Z,59.1
2019-03-27T16:45:56.887Z,56.8
2019-03-27T16:47:08.891Z,57.6
2019-03-27T16:48:21.066Z,56.9
2019-03-27T16:49:33.408Z,57.1
2019-03-27T16:50:45.676Z,56.6
2019-03-27T16:51:57.691Z,59.6
2019-03-27T16:53:10.028Z,57.6
2019-03-27T16:54:22.045Z,59.4
2019-03-27T16:55:34.251Z,57
2019-03-27T16:59:10.932Z,58.4
2019-03-27T17:00:23.140Z,58.7
2019-03-27T17:01:35.292Z,58.1
2019-03-27T17:02:47.440Z,60.4
2019-03-27T17:03:59.609Z,57.3
2019-03-27T17:05:11.803Z,57.7
2019-03-27T17:06:24.003Z,59.2
2019-03-27T17:07:36.197Z,58.9
2019-03-27T17:10:00.647Z,59.4
2019-03-27T17:11:12.847Z,58.7
2019-03-27T17:12:25.076Z,59.1
2019-03-27T17:13:37.257Z,58.8
2019-03-27T17:14:49.373Z,59.5
2019-03-27T17:16:01.578Z,59.3
2019-03-27T17:17:13.773Z,61.8
2019-03-27T17:18:26.012Z,61.1
2019-03-27T17:19:38.219Z,61.7
2019-03-27T17:22:02.692Z,59.9
2019-03-27T17:23:14.882Z,61.3
2019-03-27T17:24:26.941Z,61.2
2019-03-27T17:25:39.169Z,61.6
2019-03-27T17:28:03.532Z,60.3
2019-03-27T17:29:15.742Z,61.9
2019-03-27T17:30:27.902Z,61.5
2019-03-27T17:31:40.107Z,62.2
2019-03-27T17:34:04.501Z,61.6
2019-03-27T17:35:16.827Z,62
2019-03-27T17:36:28.931Z,62.3
2019-03-27T17:37:41.091Z,61.8
2019-03-27T17:38:53.266Z,62.1
2019-03-27T17:40:05.571Z,61.9
2019-03-27T17:41:17.730Z,62.6
2019-03-27T17:42:29.872Z,60.8
2019-03-27T17:43:42.126Z,61.4
2019-03-27T17:46:06.537Z,64.4
2019-03-27T17:47:18.808Z,61.8
2019-03-27T17:48:30.837Z,61.6
2019-03-27T17:49:43.038Z,62.7
2019-03-27T17:50:55.221Z,62.4
2019-03-27T17:52:07.442Z,62.3
2019-03-27T17:53:19.722Z,63.4
2019-03-27T17:54:31.804Z,62.3
2019-03-27T17:55:44.113Z,62.6
2019-03-27T17:58:08.409Z,63.1
2019-03-27T17:59:20.823Z,63
2019-03-27T18:00:32.778Z,63.7
2019-03-27T18:04:09.515Z,62.3
2019-03-27T18:05:21.590Z,62.9
2019-03-27T18:06:34.912Z,62.4
2019-03-27T18:07:46.045Z,63.2
2019-03-27T18:10:10.349Z,62
2019-03-27T18:11:22.685Z,64
2019-03-27T18:12:34.835Z,64.2
2019-03-27T18:13:47.006Z,64.1
2019-03-27T18:14:59.138Z,63.3
2019-03-27T18:16:11.410Z,63.8
2019-03-27T18:18:35.716Z,62.7
2019-03-27T18:19:47.982Z,64
2019-03-27T18:22:12.411Z,63.8
2019-03-27T18:23:24.595Z,64.1
2019-03-27T18:24:36.702Z,64.3
2019-03-27T18:25:49.019Z,65.2
2019-03-27T18:27:01.073Z,64.6
2019-03-27T18:28:13.290Z,65
2019-03-27T18:29:25.475Z,65
2019-03-27T18:30:37.682Z,64.9
2019-03-27T18:31:49.967Z,64.4
2019-03-27T18:33:02.065Z,64.4
2019-03-27T18:34:14.254Z,65.4
2019-03-27T18:35:26.554Z,64.9
2019-03-27T18:36:38.728Z,64.3
2019-03-27T18:37:52.187Z,64.9
2019-03-27T18:39:04.219Z,65.4
2019-03-27T18:40:16.202Z,65.7
2019-03-27T18:41:27.421Z,65.4
2019-03-27T18:42:39.643Z,65.1
2019-03-27T18:43:51.806Z,64.8
2019-03-27T18:46:16.378Z,65.7
2019-03-27T18:47:28.385Z,65.6
2019-03-27T18:48:40.614Z,64.6
2019-03-27T18:49:52.793Z,65.4
2019-03-27T18:51:04.975Z,66.4
2019-03-27T18:52:17.268Z,65.8
2019-03-27T18:53:29.464Z,65.2
2019-03-27T18:54:41.646Z,65.2
2019-03-27T18:55:53.773Z,65.3
2019-03-27T18:58:18.154Z,65.8
2019-03-27T18:59:30.425Z,65.5
2019-03-27T19:00:42.555Z,65.5
2019-03-27T19:01:54.766Z,65.8
2019-03-27T19:03:06.928Z,65.7
2019-03-27T19:04:19.113Z,66.3
2019-03-27T19:05:31.395Z,65.6
2019-03-27T19:06:43.825Z,66.4
2019-03-27T19:10:20.238Z,65.1
2019-03-27T19:11:32.378Z,66.3